createdAt,value
2017-06-27T00:00:24.353Z,15.27
2017-06-27T00:00:52.485Z,15.31
2017-06-27T00:01:20.590Z,15.3
2017-06-27T00:01:48.861Z,15.26
2017-06-27T00:02:16.901Z,15.25
2017-06-27T00:02:45.100Z,15.26
2017-06-27T00:03:13.232Z,15.25
2017-06-27T00:03:41.243Z,15.27
2017-06-27T00:04:09.449Z,15.23
2017-06-27T00:04:37.586Z,15.33
2017-06-27T00:05:05.706Z,15.22
2017-06-27T00:05:33.822Z,15.25
2017-06-27T00:06:01.958Z,15.2
2017-06-27T00:06:30.317Z,15.18
2017-06-27T00:06:58.426Z,15.23
2017-06-27T00:07:47.013Z,15.18
2017-06-27T00:08:15.149Z,15.16
2017-06-27T00:08:43.284Z,15.04
2017-06-27T00:09:11.338Z,15.15
2017-06-27T00:09:39.447Z,15.05
2017-06-27T00:10:07.656Z,15.02
2017-06-27T00:10:35.809Z,15.01
2017-06-27T00:11:03.908Z,15.02
2017-06-27T00:11:32.074Z,15.08
2017-06-27T00:12:00.245Z,15.04
2017-06-27T00:12:28.346Z,15.07
2017-06-27T00:12:56.608Z,15.04
2017-06-27T00:13:24.629Z,15
2017-06-27T00:13:52.741Z,15.05
2017-06-27T00:14:20.859Z,14.97
2017-06-27T00:14:48.925Z,14.98
2017-06-27T00:15:16.943Z,15.02
2017-06-27T00:15:45.052Z,14.98
2017-06-27T00:16:13.224Z,14.93
2017-06-27T00:16:41.534Z,14.94
2017-06-27T00:17:09.763Z,14.98
2017-06-27T00:17:37.967Z,15
2017-06-27T00:18:06.181Z,14.95
2017-06-27T00:18:34.255Z,14.94
2017-06-27T00:19:02.348Z,14.9
2017-06-27T00:19:30.484Z,14.93
2017-06-27T00:19:58.521Z,14.9
2017-06-27T00:20:26.763Z,14.87
2017-06-27T00:20:54.838Z,14.8
2017-06-27T00:21:22.969Z,14.85
2017-06-27T00:21:51.131Z,14.87
2017-06-27T00:22:19.163Z,14.85
2017-06-27T00:22:47.267Z,14.85
2017-06-27T00:23:15.389Z,14.87
2017-06-27T00:23:43.416Z,14.83
2017-06-27T00:24:11.508Z,14.82
2017-06-27T00:24:39.544Z,14.87
2017-06-27T00:25:07.795Z,14.71
2017-06-27T00:25:35.934Z,14.75
2017-06-27T00:26:04.154Z,14.75
2017-06-27T00:26:32.347Z,14.71
2017-06-27T00:27:00.487Z,14.8
2017-06-27T00:27:28.489Z,14.83
2017-06-27T00:27:56.588Z,14.75
2017-06-27T00:28:24.793Z,14.75
2017-06-27T00:28:52.980Z,14.75
2017-06-27T00:29:21.171Z,14.74
2017-06-27T00:29:49.092Z,14.66
2017-06-27T00:30:17.172Z,14.67
2017-06-27T00:30:45.093Z,14.67
2017-06-27T00:31:13.230Z,14.67
2017-06-27T00:31:41.531Z,14.64
2017-06-27T00:32:09.476Z,14.63
2017-06-27T00:32:37.571Z,14.66
2017-06-27T00:33:05.596Z,14.61
2017-06-27T00:33:33.548Z,14.63
2017-06-27T00:34:01.789Z,14.67
2017-06-27T00:34:29.891Z,14.6
2017-06-27T00:34:58.067Z,14.61
2017-06-27T00:35:26.171Z,14.67
2017-06-27T00:35:54.267Z,14.57
2017-06-27T00:36:22.466Z,14.6
2017-06-27T00:36:50.810Z,14.6
2017-06-27T00:37:18.923Z,14.61
2017-06-27T00:37:47.126Z,14.67
2017-06-27T00:38:15.204Z,14.74
2017-06-27T00:38:43.360Z,14.75
2017-06-27T00:39:11.493Z,14.79
2017-06-27T00:39:39.716Z,14.75
2017-06-27T00:40:07.952Z,14.75
2017-06-27T00:40:36.147Z,14.83
2017-06-27T00:41:04.375Z,14.75
2017-06-27T00:41:32.490Z,14.85
2017-06-27T00:42:00.495Z,14.83
2017-06-27T00:42:28.666Z,14.85
2017-06-27T00:42:56.795Z,14.82
2017-06-27T00:43:24.929Z,14.82
2017-06-27T00:43:53.120Z,14.82
2017-06-27T00:44:21.236Z,14.8
2017-06-27T00:44:49.338Z,14.74
2017-06-27T00:45:17.451Z,14.74
2017-06-27T00:45:45.659Z,14.75
2017-06-27T00:46:13.770Z,14.66
2017-06-27T00:46:41.922Z,14.67
2017-06-27T00:47:10.110Z,14.64
2017-06-27T00:47:38.232Z,14.59
2017-06-27T00:48:06.289Z,14.66
2017-06-27T00:48:34.406Z,14.66
2017-06-27T00:49:02.514Z,14.64
2017-06-27T00:49:30.429Z,14.61
2017-06-27T00:49:58.481Z,14.66
2017-06-27T00:50:26.562Z,14.56
2017-06-27T00:50:54.803Z,14.59
2017-06-27T00:51:22.936Z,14.59
2017-06-27T00:51:51.093Z,14.56
2017-06-27T00:52:19.474Z,14.6
2017-06-27T00:52:47.568Z,14.6
2017-06-27T00:53:15.783Z,14.59
2017-06-27T00:53:44.015Z,14.53
2017-06-27T00:54:12.072Z,14.53
2017-06-27T00:54:40.202Z,14.51
2017-06-27T00:55:08.245Z,14.52
2017-06-27T00:55:36.151Z,14.49
2017-06-27T00:56:04.262Z,14.52
2017-06-27T00:56:32.373Z,14.56
2017-06-27T00:57:00.503Z,14.56
2017-06-27T00:57:28.590Z,14.52
2017-06-27T00:57:56.822Z,14.52
2017-06-27T00:58:24.940Z,14.53
2017-06-27T00:58:53.107Z,14.57
2017-06-27T00:59:21.172Z,14.51
2017-06-27T00:59:49.251Z,14.56
2017-06-27T01:00:17.457Z,14.53
2017-06-27T01:00:45.605Z,14.52
2017-06-27T01:01:13.695Z,14.53
2017-06-27T01:01:41.984Z,14.56
2017-06-27T01:02:10.227Z,14.52
2017-06-27T01:02:38.305Z,14.49
2017-06-27T01:03:06.503Z,14.53
2017-06-27T01:03:34.760Z,14.53
2017-06-27T01:04:02.886Z,14.45
2017-06-27T01:04:30.988Z,14.49
2017-06-27T01:04:59.043Z,14.53
2017-06-27T01:05:27.079Z,14.52
2017-06-27T01:05:55.241Z,14.45
2017-06-27T01:06:23.234Z,14.53
2017-06-27T01:06:51.468Z,14.48
2017-06-27T01:07:19.785Z,14.49
2017-06-27T01:07:47.863Z,14.53
2017-06-27T01:08:15.975Z,14.51
2017-06-27T01:08:44.042Z,14.57
2017-06-27T01:09:12.156Z,14.53
2017-06-27T01:09:40.282Z,14.53
2017-06-27T01:10:08.337Z,14.56
2017-06-27T01:10:36.254Z,14.51
2017-06-27T01:11:04.215Z,14.52
2017-06-27T01:11:32.279Z,14.52
2017-06-27T01:12:00.524Z,14.52
2017-06-27T01:12:28.738Z,14.61
2017-06-27T01:12:56.892Z,14.6
2017-06-27T01:13:25.098Z,14.6
2017-06-27T01:13:53.023Z,14.61
2017-06-27T01:14:21.202Z,14.56
2017-06-27T01:14:49.224Z,14.56
2017-06-27T01:15:17.258Z,14.57
2017-06-27T01:15:45.389Z,14.48
2017-06-27T01:16:13.487Z,14.57
2017-06-27T01:16:41.645Z,14.57
2017-06-27T01:17:09.877Z,14.53
2017-06-27T01:17:37.863Z,14.57
2017-06-27T01:18:06.078Z,14.53
2017-06-27T01:18:34.309Z,14.57
2017-06-27T01:19:02.540Z,14.56
2017-06-27T01:19:30.641Z,14.59
2017-06-27T01:19:58.847Z,14.6
2017-06-27T01:20:27.244Z,14.61
2017-06-27T01:20:55.297Z,14.6
2017-06-27T01:21:23.697Z,14.63
2017-06-27T01:21:51.930Z,14.67
2017-06-27T01:22:20.157Z,14.61
2017-06-27T01:22:48.159Z,14.6
2017-06-27T01:23:16.098Z,14.6
2017-06-27T01:23:44.302Z,14.57
2017-06-27T01:24:12.534Z,14.53
2017-06-27T01:24:40.602Z,14.44
2017-06-27T01:25:08.424Z,14.44
2017-06-27T01:25:36.661Z,14.49
2017-06-27T01:26:04.794Z,14.46
2017-06-27T01:26:32.990Z,14.46
2017-06-27T01:27:01.216Z,14.46
2017-06-27T01:27:29.579Z,14.46
2017-06-27T01:27:57.792Z,14.38
2017-06-27T01:28:25.836Z,14.33
2017-06-27T01:28:53.878Z,14.34
2017-06-27T01:29:22.145Z,14.36
2017-06-27T01:29:50.404Z,14.36
2017-06-27T01:30:18.508Z,14.33
2017-06-27T01:30:46.612Z,14.36
2017-06-27T01:31:14.650Z,14.34
2017-06-27T01:31:42.739Z,14.3
2017-06-27T01:32:10.849Z,14.36
2017-06-27T01:32:38.985Z,14.3
2017-06-27T01:33:07.204Z,14.23
2017-06-27T01:33:35.436Z,14.28
2017-06-27T01:34:03.645Z,14.3
2017-06-27T01:34:31.872Z,14.3
2017-06-27T01:34:59.907Z,14.26
2017-06-27T01:35:28.055Z,14.31
2017-06-27T01:35:56.248Z,14.2
2017-06-27T01:36:24.378Z,14.28
2017-06-27T01:36:52.523Z,14.31
2017-06-27T01:37:20.447Z,14.38
2017-06-27T01:37:48.469Z,14.34
2017-06-27T01:38:16.659Z,14.33
2017-06-27T01:38:44.878Z,14.45
2017-06-27T01:39:13.073Z,14.44
2017-06-27T01:39:41.289Z,14.49
2017-06-27T01:40:09.394Z,14.51
2017-06-27T01:40:37.451Z,14.48
2017-06-27T01:41:05.562Z,14.59
2017-06-27T01:41:33.691Z,14.59
2017-06-27T01:42:01.710Z,14.67
2017-06-27T01:42:29.916Z,14.64
2017-06-27T01:42:58.050Z,14.63
2017-06-27T01:43:26.289Z,14.66
2017-06-27T01:43:54.410Z,14.64
2017-06-27T01:44:22.531Z,14.66
2017-06-27T01:44:50.543Z,14.67
2017-06-27T01:45:18.730Z,14.66
2017-06-27T01:45:46.545Z,14.61
2017-06-27T01:46:14.779Z,14.59
2017-06-27T01:46:43.031Z,14.63
2017-06-27T01:47:11.168Z,14.59
2017-06-27T01:47:39.257Z,14.57
2017-06-27T01:48:07.331Z,14.59
2017-06-27T01:48:35.323Z,14.59
2017-06-27T01:49:03.404Z,14.6
2017-06-27T01:49:31.602Z,14.57
2017-06-27T01:49:59.827Z,14.53
2017-06-27T01:50:27.833Z,14.57
2017-06-27T01:50:55.893Z,14.44
2017-06-27T01:51:24.092Z,14.46
2017-06-27T01:51:51.983Z,14.48
2017-06-27T01:52:20.078Z,14.52
2017-06-27T01:52:48.115Z,14.46
2017-06-27T01:53:16.061Z,14.46
2017-06-27T01:53:44.190Z,14.56
2017-06-27T01:54:12.264Z,14.49
2017-06-27T01:54:40.508Z,14.51
2017-06-27T01:55:08.628Z,14.45
2017-06-27T01:55:36.698Z,14.44
2017-06-27T01:56:04.799Z,14.42
2017-06-27T01:56:32.786Z,14.49
2017-06-27T01:57:00.980Z,14.44
2017-06-27T01:57:28.981Z,14.39
2017-06-27T01:57:57.177Z,14.33
2017-06-27T01:58:25.134Z,14.3
2017-06-27T01:58:53.255Z,14.31
2017-06-27T01:59:21.257Z,14.28
2017-06-27T01:59:49.244Z,14.31
2017-06-27T02:00:17.310Z,14.33
2017-06-27T02:00:45.426Z,14.36
2017-06-27T02:01:13.680Z,14.34
2017-06-27T02:01:41.704Z,14.33
2017-06-27T02:02:09.909Z,14.41
2017-06-27T02:02:38.250Z,14.46
2017-06-27T02:03:06.375Z,14.41
2017-06-27T02:03:34.355Z,14.42
2017-06-27T02:04:02.575Z,14.48
2017-06-27T02:04:30.714Z,14.46
2017-06-27T02:04:58.737Z,14.57
2017-06-27T02:05:26.933Z,14.51
2017-06-27T02:05:54.860Z,14.56
2017-06-27T02:06:22.875Z,14.56
2017-06-27T02:06:51.071Z,14.59
2017-06-27T02:07:19.121Z,14.63
2017-06-27T02:07:47.377Z,14.64
2017-06-27T02:08:15.499Z,14.63
2017-06-27T02:08:43.603Z,14.6
2017-06-27T02:09:11.813Z,14.57
2017-06-27T02:09:40.009Z,14.61
2017-06-27T02:10:08.212Z,14.66
2017-06-27T02:10:36.318Z,14.66
2017-06-27T02:11:04.413Z,14.59
2017-06-27T02:11:32.526Z,14.63
2017-06-27T02:12:00.636Z,14.56
2017-06-27T02:12:28.774Z,14.53
2017-06-27T02:12:56.899Z,14.59
2017-06-27T02:13:25.032Z,14.57
2017-06-27T02:13:53.071Z,14.46
2017-06-27T02:14:21.124Z,14.45
2017-06-27T02:14:49.271Z,14.31
2017-06-27T02:15:17.458Z,14.33
2017-06-27T02:15:45.571Z,14.36
2017-06-27T02:16:13.703Z,14.36
2017-06-27T02:16:41.938Z,14.31
2017-06-27T02:17:10.525Z,14.23
2017-06-27T02:17:38.787Z,14.2
2017-06-27T02:18:07.089Z,14.23
2017-06-27T02:18:35.334Z,14.2
2017-06-27T02:19:03.482Z,14.19
2017-06-27T02:19:31.757Z,14.21
2017-06-27T02:19:59.997Z,14.13
2017-06-27T02:20:28.230Z,14.09
2017-06-27T02:20:56.489Z,14.11
2017-06-27T02:21:24.606Z,14.03
2017-06-27T02:21:52.728Z,14.05
2017-06-27T02:22:20.895Z,14.06
2017-06-27T02:22:49.096Z,13.93
2017-06-27T02:23:17.186Z,13.97
2017-06-27T02:23:45.427Z,13.99
2017-06-27T02:24:13.644Z,13.97
2017-06-27T02:24:41.730Z,13.95
2017-06-27T02:25:09.771Z,13.99
2017-06-27T02:25:37.972Z,13.95
2017-06-27T02:26:05.952Z,14.02
2017-06-27T02:26:33.984Z,13.97
2017-06-27T02:27:02.167Z,14.01
2017-06-27T02:27:30.389Z,14.01
2017-06-27T02:27:58.678Z,13.99
2017-06-27T02:28:26.916Z,14.01
2017-06-27T02:28:55.008Z,13.99
2017-06-27T02:29:23.138Z,13.95
2017-06-27T02:29:51.125Z,13.95
2017-06-27T02:30:19.256Z,13.99
2017-06-27T02:30:47.473Z,14.03
2017-06-27T02:31:15.561Z,14.03
2017-06-27T02:31:43.698Z,13.95
2017-06-27T02:32:11.706Z,14.02
2017-06-27T02:32:39.774Z,14.01
2017-06-27T02:33:07.927Z,14.01
2017-06-27T02:33:36.143Z,14.03
2017-06-27T02:34:04.345Z,14.06
2017-06-27T02:34:32.386Z,14.11
2017-06-27T02:35:00.642Z,14.06
2017-06-27T02:35:28.690Z,14.11
2017-06-27T02:35:56.743Z,14.01
2017-06-27T02:36:24.766Z,14.08
2017-06-27T02:36:52.845Z,14.05
2017-06-27T02:37:21.046Z,14.13
2017-06-27T02:37:49.093Z,14.03
2017-06-27T02:38:17.334Z,14.01
2017-06-27T02:38:45.266Z,13.95
2017-06-27T02:39:13.230Z,14.02
2017-06-27T02:39:41.444Z,14.01
2017-06-27T02:40:09.672Z,13.97
2017-06-27T02:40:37.896Z,14.02
2017-06-27T02:41:06.019Z,14.01
2017-06-27T02:41:34.133Z,14.06
2017-06-27T02:42:02.317Z,13.97
2017-06-27T02:42:30.574Z,13.99
2017-06-27T02:42:58.781Z,14.01
2017-06-27T02:43:26.989Z,13.93
2017-06-27T02:43:55.139Z,13.94
2017-06-27T02:44:23.234Z,13.9
2017-06-27T02:44:51.271Z,13.97
2017-06-27T02:45:19.378Z,13.94
2017-06-27T02:45:47.552Z,14.02
2017-06-27T02:46:15.748Z,13.94
2017-06-27T02:46:43.833Z,13.95
2017-06-27T02:47:12.034Z,13.94
2017-06-27T02:47:40.211Z,14.02
2017-06-27T02:48:08.311Z,13.94
2017-06-27T02:48:36.571Z,13.95
2017-06-27T02:49:04.755Z,13.97
2017-06-27T02:49:32.758Z,13.95
2017-06-27T02:50:00.876Z,13.9
2017-06-27T02:50:29.005Z,13.91
2017-06-27T02:50:57.141Z,13.97
2017-06-27T02:51:25.208Z,13.97
2017-06-27T02:51:53.325Z,13.94
2017-06-27T02:52:21.527Z,13.97
2017-06-27T02:52:49.577Z,13.99
2017-06-27T02:53:17.707Z,14.06
2017-06-27T02:53:45.711Z,14.06
2017-06-27T02:54:13.865Z,14.11
2017-06-27T02:54:41.974Z,14.09
2017-06-27T02:55:10.094Z,14.19
2017-06-27T02:55:38.329Z,14.19
2017-06-27T02:56:06.479Z,14.3
2017-06-27T02:56:34.699Z,14.27
2017-06-27T02:57:02.703Z,14.24
2017-06-27T02:57:30.954Z,14.3
2017-06-27T02:57:59.148Z,14.3
2017-06-27T02:58:27.536Z,14.3
2017-06-27T02:58:55.576Z,14.2
2017-06-27T02:59:23.613Z,14.21
2017-06-27T02:59:51.735Z,14.21
2017-06-27T03:00:19.943Z,14.13
2017-06-27T03:00:48.217Z,14.2
2017-06-27T03:01:16.317Z,14.21
2017-06-27T03:01:44.401Z,14.13
2017-06-27T03:02:12.612Z,14.08
2017-06-27T03:02:40.853Z,14.12
2017-06-27T03:03:09.024Z,14.05
2017-06-27T03:03:37.262Z,14.09
2017-06-27T03:04:05.344Z,14.13
2017-06-27T03:04:33.575Z,14.08
2017-06-27T03:05:01.681Z,14.11
2017-06-27T03:05:29.812Z,14.02
2017-06-27T03:05:57.957Z,14.01
2017-06-27T03:06:26.028Z,14.01
2017-06-27T03:06:54.144Z,13.99
2017-06-27T03:07:22.228Z,13.97
2017-06-27T03:07:50.409Z,13.95
2017-06-27T03:08:18.542Z,13.88
2017-06-27T03:08:46.833Z,13.99
2017-06-27T03:09:14.798Z,13.91
2017-06-27T03:09:42.925Z,13.94
2017-06-27T03:10:11.036Z,13.93
2017-06-27T03:10:39.190Z,13.93
2017-06-27T03:11:07.395Z,13.97
2017-06-27T03:11:35.501Z,13.93
2017-06-27T03:12:03.675Z,13.95
2017-06-27T03:12:31.763Z,13.93
2017-06-27T03:12:59.992Z,14.01
2017-06-27T03:13:28.380Z,13.95
2017-06-27T03:13:56.710Z,13.95
2017-06-27T03:14:24.729Z,13.95
2017-06-27T03:14:52.895Z,13.95
2017-06-27T03:15:20.926Z,13.95
2017-06-27T03:15:49.049Z,13.95
2017-06-27T03:16:17.244Z,13.93
2017-06-27T03:16:45.480Z,13.93
2017-06-27T03:17:13.559Z,13.86
2017-06-27T03:17:41.797Z,13.87
2017-06-27T03:18:10.078Z,13.84
2017-06-27T03:18:38.159Z,13.87
2017-06-27T03:19:06.243Z,13.84
2017-06-27T03:19:34.420Z,13.84
2017-06-27T03:20:02.466Z,13.86
2017-06-27T03:20:30.578Z,13.86
2017-06-27T03:20:58.601Z,13.87
2017-06-27T03:21:26.708Z,13.91
2017-06-27T03:21:54.980Z,13.91
2017-06-27T03:22:23.204Z,13.91
2017-06-27T03:22:51.255Z,13.91
2017-06-27T03:23:19.458Z,13.93
2017-06-27T03:23:47.655Z,13.87
2017-06-27T03:24:15.680Z,13.91
2017-06-27T03:24:43.803Z,13.93
2017-06-27T03:25:11.902Z,13.94
2017-06-27T03:25:40.112Z,13.97
2017-06-27T03:26:08.333Z,14.05
2017-06-27T03:26:36.375Z,14.13
2017-06-27T03:27:04.572Z,14.15
2017-06-27T03:27:32.548Z,14.08
2017-06-27T03:28:00.760Z,14.11
2017-06-27T03:28:28.868Z,14.13
2017-06-27T03:28:57.198Z,14.06
2017-06-27T03:29:25.404Z,14.08
2017-06-27T03:29:53.636Z,14.11
2017-06-27T03:30:21.725Z,14.03
2017-06-27T03:30:49.907Z,14.06
2017-06-27T03:31:17.904Z,14.19
2017-06-27T03:31:45.973Z,14.19
2017-06-27T03:32:14.144Z,14.19
2017-06-27T03:32:42.240Z,14.19
2017-06-27T03:33:10.349Z,14.2
2017-06-27T03:33:38.555Z,14.21
2017-06-27T03:34:06.769Z,14.16
2017-06-27T03:34:34.824Z,14.16
2017-06-27T03:35:02.828Z,14.27
2017-06-27T03:35:30.925Z,14.3
2017-06-27T03:35:59.124Z,14.26
2017-06-27T03:36:27.080Z,14.36
2017-06-27T03:36:55.240Z,14.38
2017-06-27T03:37:23.437Z,14.33
2017-06-27T03:37:51.627Z,14.38
2017-06-27T03:38:19.819Z,14.36
2017-06-27T03:38:48.004Z,14.33
2017-06-27T03:39:16.114Z,14.39
2017-06-27T03:39:44.234Z,14.41
2017-06-27T03:40:12.245Z,14.41
2017-06-27T03:40:40.432Z,14.34
2017-06-27T03:41:08.697Z,14.33
2017-06-27T03:41:36.788Z,14.31
2017-06-27T03:42:05.032Z,14.2
2017-06-27T03:42:33.060Z,14.26
2017-06-27T03:43:01.301Z,14.24
2017-06-27T03:43:29.316Z,14.21
2017-06-27T03:43:57.582Z,14.19
2017-06-27T03:44:25.687Z,14.16
2017-06-27T03:44:53.953Z,14.16
2017-06-27T03:45:21.962Z,14.19
2017-06-27T03:45:50.154Z,14.21
2017-06-27T03:46:18.175Z,14.26
2017-06-27T03:46:46.401Z,14.26
2017-06-27T03:47:14.566Z,14.31
2017-06-27T03:47:42.753Z,14.3
2017-06-27T03:48:10.782Z,14.31
2017-06-27T03:48:38.991Z,14.21
2017-06-27T03:49:07.097Z,14.21
2017-06-27T03:49:35.223Z,14.26
2017-06-27T03:50:03.316Z,14.31
2017-06-27T03:50:31.423Z,14.27
2017-06-27T03:50:59.601Z,14.36
2017-06-27T03:51:27.637Z,14.33
2017-06-27T03:51:55.844Z,14.36
2017-06-27T03:52:24.055Z,14.34
2017-06-27T03:52:52.266Z,14.36
2017-06-27T03:53:20.378Z,14.33
2017-06-27T03:53:48.517Z,14.38
2017-06-27T03:54:16.762Z,14.28
2017-06-27T03:54:44.999Z,14.31
2017-06-27T03:55:13.141Z,14.36
2017-06-27T03:55:41.281Z,14.23
2017-06-27T03:56:09.471Z,14.21
2017-06-27T03:56:37.518Z,14.27
2017-06-27T03:57:05.560Z,14.16
2017-06-27T03:57:33.781Z,14.19
2017-06-27T03:58:01.880Z,14.24
2017-06-27T03:58:30.095Z,14.2
2017-06-27T03:58:58.303Z,14.23
2017-06-27T03:59:26.598Z,14.33
2017-06-27T03:59:54.756Z,14.31
2017-06-27T04:00:22.867Z,14.31
2017-06-27T04:00:51.012Z,14.31
2017-06-27T04:01:19.063Z,14.34
2017-06-27T04:01:47.179Z,14.27
2017-06-27T04:02:15.187Z,14.36
2017-06-27T04:02:43.284Z,14.31
2017-06-27T04:03:11.301Z,14.36
2017-06-27T04:03:39.566Z,14.42
2017-06-27T04:04:07.795Z,14.36
2017-06-27T04:04:35.921Z,14.48
2017-06-27T04:05:04.062Z,14.48
2017-06-27T04:05:31.971Z,14.51
2017-06-27T04:05:59.886Z,14.49
2017-06-27T04:06:28.110Z,14.56
2017-06-27T04:06:56.244Z,14.52
2017-06-27T04:07:24.401Z,14.56
2017-06-27T04:07:52.423Z,14.52
2017-06-27T04:08:20.558Z,14.51
2017-06-27T04:08:48.704Z,14.56
2017-06-27T04:09:17.005Z,14.51
2017-06-27T04:09:45.121Z,14.49
2017-06-27T04:10:13.143Z,14.57
2017-06-27T04:10:41.212Z,14.61
2017-06-27T04:11:09.432Z,14.64
2017-06-27T04:11:37.555Z,14.6
2017-06-27T04:12:05.757Z,14.61
2017-06-27T04:12:33.992Z,14.63
2017-06-27T04:13:01.984Z,14.6
2017-06-27T04:13:30.149Z,14.67
2017-06-27T04:13:58.094Z,14.63
2017-06-27T04:14:26.391Z,14.63
2017-06-27T04:14:54.909Z,14.64
2017-06-27T04:15:23.181Z,14.66
2017-06-27T04:15:51.330Z,14.6
2017-06-27T04:16:19.539Z,14.63
2017-06-27T04:16:47.630Z,14.6
2017-06-27T04:17:15.757Z,14.59
2017-06-27T04:17:43.946Z,14.66
2017-06-27T04:18:12.032Z,14.67
2017-06-27T04:18:40.235Z,14.66
2017-06-27T04:19:08.367Z,14.75
2017-06-27T04:19:36.682Z,14.75
2017-06-27T04:20:04.698Z,14.74
2017-06-27T04:20:32.935Z,14.79
2017-06-27T04:21:01.036Z,14.77
2017-06-27T04:21:29.260Z,14.86
2017-06-27T04:21:57.390Z,14.93
2017-06-27T04:22:25.318Z,14.94
2017-06-27T04:22:53.524Z,14.89
2017-06-27T04:23:21.734Z,14.93
2017-06-27T04:23:49.846Z,14.97
2017-06-27T04:24:17.994Z,14.95
2017-06-27T04:24:46.299Z,14.94
2017-06-27T04:25:14.339Z,15.07
2017-06-27T04:25:42.523Z,15.04
2017-06-27T04:26:10.624Z,15
2017-06-27T04:26:38.656Z,15.04
2017-06-27T04:27:06.690Z,15.02
2017-06-27T04:27:34.920Z,15.04
2017-06-27T04:28:03.066Z,15.08
2017-06-27T04:28:31.256Z,15.05
2017-06-27T04:28:59.282Z,15.04
2017-06-27T04:29:27.370Z,15
2017-06-27T04:29:55.608Z,15.04
2017-06-27T04:30:23.644Z,15.1
2017-06-27T04:30:51.775Z,15.08
2017-06-27T04:31:19.975Z,15.12
2017-06-27T04:31:48.058Z,15.07
2017-06-27T04:32:16.197Z,15.16
2017-06-27T04:32:44.272Z,15.2
2017-06-27T04:33:12.291Z,15.22
2017-06-27T04:33:40.490Z,15.18
2017-06-27T04:34:08.581Z,15.19
2017-06-27T04:34:36.874Z,15.15
2017-06-27T04:35:05.125Z,15.12
2017-06-27T04:35:33.049Z,15.18
2017-06-27T04:36:01.259Z,15.18
2017-06-27T04:36:29.344Z,15.18
2017-06-27T04:36:57.361Z,15.18
2017-06-27T04:37:25.592Z,15.13
2017-06-27T04:37:53.698Z,15.22
2017-06-27T04:38:21.908Z,15.19
2017-06-27T04:38:50.045Z,15.26
2017-06-27T04:39:17.947Z,15.27
2017-06-27T04:39:46.049Z,15.3
2017-06-27T04:40:13.970Z,15.33
2017-06-27T04:40:42.134Z,15.33
2017-06-27T04:41:10.561Z,15.31
2017-06-27T04:41:38.703Z,15.27
2017-06-27T04:42:07.022Z,15.4
2017-06-27T04:42:35.222Z,15.33
2017-06-27T04:43:03.421Z,15.27
2017-06-27T04:43:31.643Z,15.23
2017-06-27T04:43:59.841Z,15.3
2017-06-27T04:44:27.945Z,15.26
2017-06-27T04:44:56.174Z,15.31
2017-06-27T04:45:24.044Z,15.31
2017-06-27T04:45:52.247Z,15.26
2017-06-27T04:46:20.368Z,15.25
2017-06-27T04:46:48.588Z,15.35
2017-06-27T04:47:16.810Z,15.25
2017-06-27T04:47:44.976Z,15.22
2017-06-27T04:48:13.110Z,15.18
2017-06-27T04:48:41.206Z,15.19
2017-06-27T04:49:09.266Z,15.22
2017-06-27T04:49:37.452Z,15.26
2017-06-27T04:50:05.723Z,15.3
2017-06-27T04:50:33.736Z,15.35
2017-06-27T04:51:01.877Z,15.22
2017-06-27T04:51:30.126Z,15.19
2017-06-27T04:51:58.345Z,15.22
2017-06-27T04:52:26.444Z,15.15
2017-06-27T04:52:54.578Z,15.15
2017-06-27T04:53:22.663Z,15.15
2017-06-27T04:53:50.835Z,15.13
2017-06-27T04:54:18.965Z,15.18
2017-06-27T04:54:47.154Z,15.15
2017-06-27T04:55:15.298Z,15.12
2017-06-27T04:55:43.537Z,15.16
2017-06-27T04:56:11.655Z,15.26
2017-06-27T04:56:39.651Z,15.19
2017-06-27T04:57:07.709Z,15.18
2017-06-27T04:57:35.925Z,15.19
2017-06-27T04:58:03.939Z,15.3
2017-06-27T04:58:32.044Z,15.31
2017-06-27T04:59:00.244Z,15.33
2017-06-27T04:59:28.308Z,15.35
2017-06-27T04:59:56.506Z,15.37
2017-06-27T05:00:24.604Z,15.22
2017-06-27T05:00:52.715Z,15.34
2017-06-27T05:01:20.887Z,15.25
2017-06-27T05:01:48.982Z,15.3
2017-06-27T05:02:17.078Z,15.25
2017-06-27T05:02:45.199Z,15.23
2017-06-27T05:03:13.377Z,15.27
2017-06-27T05:03:41.589Z,15.3
2017-06-27T05:04:09.714Z,15.31
2017-06-27T05:04:37.637Z,15.31
2017-06-27T05:05:05.940Z,15.26
2017-06-27T05:05:34.139Z,15.3
2017-06-27T05:06:02.370Z,15.3
2017-06-27T05:06:30.614Z,15.33
2017-06-27T05:06:59.041Z,15.26
2017-06-27T05:07:27.081Z,15.33
2017-06-27T05:07:55.309Z,15.33
2017-06-27T05:08:23.491Z,15.19
2017-06-27T05:08:51.649Z,15.2
2017-06-27T05:09:19.710Z,15.27
2017-06-27T05:09:47.731Z,15.33
2017-06-27T05:10:15.907Z,15.3
2017-06-27T05:10:43.935Z,15.27
2017-06-27T05:11:12.262Z,15.23
2017-06-27T05:11:40.271Z,15.31
2017-06-27T05:12:08.443Z,15.27
2017-06-27T05:12:36.430Z,15.33
2017-06-27T05:13:04.658Z,15.34
2017-06-27T05:13:32.768Z,15.38
2017-06-27T05:14:00.920Z,15.31
2017-06-27T05:14:29.030Z,15.38
2017-06-27T05:14:56.991Z,15.31
2017-06-27T05:15:25.294Z,15.25
2017-06-27T05:15:53.384Z,15.35
2017-06-27T05:16:21.516Z,15.38
2017-06-27T05:16:49.746Z,15.37
2017-06-27T05:17:17.847Z,15.44
2017-06-27T05:17:45.703Z,15.43
2017-06-27T05:18:13.943Z,15.35
2017-06-27T05:18:42.143Z,15.41
2017-06-27T05:19:10.343Z,15.38
2017-06-27T05:19:38.821Z,15.45
2017-06-27T05:20:07.025Z,15.34
2017-06-27T05:20:35.130Z,15.27
2017-06-27T05:21:03.380Z,15.37
2017-06-27T05:21:31.566Z,15.23
2017-06-27T05:21:59.663Z,15.26
2017-06-27T05:22:27.924Z,15.3
2017-06-27T05:22:56.160Z,15.3
2017-06-27T05:23:24.202Z,15.27
2017-06-27T05:23:52.074Z,15.23
2017-06-27T05:24:20.160Z,15.3
2017-06-27T05:24:48.289Z,15.26
2017-06-27T05:25:16.671Z,15.35
2017-06-27T05:25:44.886Z,15.3
2017-06-27T05:26:13.047Z,15.25
2017-06-27T05:26:41.149Z,15.31
2017-06-27T05:27:09.312Z,15.25
2017-06-27T05:27:37.406Z,15.3
2017-06-27T05:28:05.375Z,15.33
2017-06-27T05:28:33.630Z,15.27
2017-06-27T05:29:01.781Z,15.26
2017-06-27T05:29:30.033Z,15.31
2017-06-27T05:29:58.016Z,15.35
2017-06-27T05:30:26.153Z,15.38
2017-06-27T05:30:54.369Z,15.38
2017-06-27T05:31:22.523Z,15.35
2017-06-27T05:31:50.762Z,15.44
2017-06-27T05:32:18.905Z,15.43
2017-06-27T05:32:46.898Z,15.38
2017-06-27T05:33:15.112Z,15.41
2017-06-27T05:33:43.347Z,15.37
2017-06-27T05:34:11.479Z,15.4
2017-06-27T05:34:39.536Z,15.43
2017-06-27T05:35:07.583Z,15.3
2017-06-27T05:35:35.888Z,15.31
2017-06-27T05:36:03.751Z,15.43
2017-06-27T05:36:31.865Z,15.35
2017-06-27T05:36:59.952Z,15.33
2017-06-27T05:37:28.179Z,15.43
2017-06-27T05:37:56.400Z,15.35
2017-06-27T05:38:24.465Z,15.41
2017-06-27T05:38:52.590Z,15.47
2017-06-27T05:39:20.686Z,15.3
2017-06-27T05:39:48.788Z,15.3
2017-06-27T05:40:17.025Z,15.35
2017-06-27T05:40:45.360Z,15.4
2017-06-27T05:41:13.581Z,15.35
2017-06-27T05:41:41.773Z,15.3
2017-06-27T05:42:09.889Z,15.26
2017-06-27T05:42:38.016Z,15.25
2017-06-27T05:43:06.144Z,15.31
2017-06-27T05:43:34.251Z,15.2
2017-06-27T05:44:02.475Z,15.3
2017-06-27T05:44:30.724Z,15.26
2017-06-27T05:44:58.997Z,15.3
2017-06-27T05:45:27.224Z,15.31
2017-06-27T05:45:55.334Z,15.31
2017-06-27T05:46:23.457Z,15.25
2017-06-27T05:46:51.604Z,15.25
2017-06-27T05:47:19.755Z,15.27
2017-06-27T05:47:47.778Z,15.27
2017-06-27T05:48:16.027Z,15.26
2017-06-27T05:48:44.049Z,15.26
2017-06-27T05:49:12.277Z,15.35
2017-06-27T05:49:40.399Z,15.26
2017-06-27T05:50:08.614Z,15.25
2017-06-27T05:50:36.918Z,15.3
2017-06-27T05:51:05.017Z,15.26
2017-06-27T05:51:32.899Z,15.33
2017-06-27T05:52:01.009Z,15.34
2017-06-27T05:52:29.021Z,15.25
2017-06-27T05:52:56.957Z,15.33
2017-06-27T05:53:24.980Z,15.34
2017-06-27T05:53:52.878Z,15.3
2017-06-27T05:54:20.852Z,15.31
2017-06-27T05:54:48.792Z,15.31
2017-06-27T05:55:16.921Z,15.3
2017-06-27T05:55:45.184Z,15.31
2017-06-27T05:56:13.314Z,15.22
2017-06-27T05:56:41.570Z,15.22
2017-06-27T05:57:09.591Z,15.22
2017-06-27T05:57:37.718Z,15.25
2017-06-27T05:58:05.913Z,15.27
2017-06-27T05:58:34.026Z,15.3
2017-06-27T05:59:02.231Z,15.35
2017-06-27T05:59:30.410Z,15.23
2017-06-27T05:59:58.617Z,15.26
2017-06-27T06:00:26.817Z,15.26
2017-06-27T06:00:55.071Z,15.31
2017-06-27T06:01:23.079Z,15.26
2017-06-27T06:01:51.108Z,15.27
2017-06-27T06:02:19.264Z,15.27
2017-06-27T06:02:47.471Z,15.22
2017-06-27T06:03:15.648Z,15.3
2017-06-27T06:03:43.888Z,15.23
2017-06-27T06:04:12.011Z,15.35